createdAt,value
2022-09-07T00:00:50.308Z,47.16
2022-09-07T00:03:18.143Z,47.77
2022-09-07T00:05:47.748Z,47.85
2022-09-07T00:08:17.214Z,47.94
2022-09-07T00:11:04.068Z,48.20
2022-09-07T00:13:35.853Z,47.69
2022-09-07T00:16:31.151Z,47.72
2022-09-07T00:19:02.165Z,48.10
2022-09-07T00:21:29.430Z,47.44
2022-09-07T00:23:57.084Z,47.81
2022-09-07T00:26:28.507Z,47.51
2022-09-07T00:29:03.455Z,47.78
2022-09-07T00:31:31.737Z,47.88
2022-09-07T00:34:01.026Z,47.94
2022-09-07T00:36:28.403Z,47.69
2022-09-07T00:38:55.583Z,47.89
2022-09-07T00:41:23.243Z,47.82
2022-09-07T00:43:54.345Z,48.08
2022-09-07T00:46:28.032Z,48.14
2022-09-07T00:49:16.449Z,48.03
2022-09-07T00:51:55.642Z,48.34
2022-09-07T00:54:28.738Z,48.29
2022-09-07T00:56:55.779Z,48.27
2022-09-07T00:59:27.706Z,48.06
2022-09-07T01:01:54.866Z,48.67
2022-09-07T01:04:22.954Z,48.33
2022-09-07T01:06:50.574Z,48.82
2022-09-07T01:09:22.862Z,48.79
2022-09-07T01:11:51.718Z,48.39
2022-09-07T01:14:27.585Z,48.68
2022-09-07T01:17:08.276Z,48.66
2022-09-07T01:20:11.736Z,48.53
2022-09-07T01:23:37.600Z,48.57
2022-09-07T01:26:34.534Z,48.75
2022-09-07T01:29:35.914Z,48.60
2022-09-07T01:32:26.143Z,49.00
2022-09-07T01:34:53.852Z,48.71
2022-09-07T01:37:44.043Z,49.08
2022-09-07T01:40:32.049Z,48.93
2022-09-07T01:43:10.281Z,49.07
2022-09-07T01:45:41.316Z,48.94
2022-09-07T01:48:13.960Z,48.89
2022-09-07T01:50:55.044Z,49.10
2022-09-07T01:53:51.540Z,48.94
2022-09-07T01:56:35.120Z,49.26
2022-09-07T01:59:16.117Z,49.32
2022-09-07T02:02:09.649Z,49.34
2022-09-07T02:04:47.706Z,49.34
2022-09-07T02:07:25.857Z,49.38
2022-09-07T02:09:59.725Z,49.07
2022-09-07T02:12:52.448Z,49.19
2022-09-07T02:15:27.613Z,48.77
2022-09-07T02:18:01.419Z,49.15
2022-09-07T02:20:37.357Z,49.64
2022-09-07T02:23:14.236Z,49.43
2022-09-07T02:25:53.556Z,49.57
2022-09-07T02:28:29.955Z,49.65
2022-09-07T02:30:57.006Z,49.32
2022-09-07T02:33:24.083Z,49.40
2022-09-07T02:35:51.892Z,49.14
2022-09-07T02:38:19.670Z,49.57
2022-09-07T02:40:56.843Z,49.50
2022-09-07T02:43:25.805Z,49.43
2022-09-07T02:46:28.753Z,50.17
2022-09-07T02:49:39.254Z,49.85
2022-09-07T02:52:43.971Z,50.06
2022-09-07T02:55:35.249Z,50.70
2022-09-07T02:58:35.567Z,50.42
2022-09-07T03:01:39.307Z,50.55
2022-09-07T03:04:22.985Z,50.66
2022-09-07T03:07:03.809Z,50.49
2022-09-07T03:09:37.713Z,50.72
2022-09-07T03:12:05.491Z,50.24
2022-09-07T03:14:33.748Z,50.46
2022-09-07T03:17:01.335Z,50.66
2022-09-07T03:19:28.251Z,50.40
2022-09-07T03:21:55.163Z,50.63
2022-09-07T03:24:22.073Z,50.81
2022-09-07T03:26:49.377Z,50.49
2022-09-07T03:29:16.332Z,50.38
2022-09-07T03:31:43.326Z,50.73
2022-09-07T03:34:10.799Z,50.56
2022-09-07T03:36:37.992Z,50.50
2022-09-07T03:39:07.260Z,50.63
2022-09-07T03:41:34.352Z,50.71
2022-09-07T03:44:05.713Z,50.69
2022-09-07T03:46:33.708Z,50.72
2022-09-07T03:49:00.661Z,50.50
2022-09-07T03:51:27.587Z,50.58
2022-09-07T03:53:55.146Z,50.54
2022-09-07T03:56:24.379Z,50.61
2022-09-07T03:58:53.446Z,50.42
2022-09-07T04:01:23.318Z,50.70
2022-09-07T04:03:50.829Z,50.72
2022-09-07T04:06:19.490Z,50.61
2022-09-07T04:08:46.730Z,50.67
2022-09-07T04:11:17.735Z,50.66
2022-09-07T04:13:45.551Z,50.90
2022-09-07T04:16:14.437Z,50.53
2022-09-07T04:18:41.875Z,50.95
2022-09-07T04:21:09.157Z,50.91
2022-09-07T04:23:39.430Z,50.51
2022-09-07T04:26:06.629Z,50.84
2022-09-07T04:28:33.583Z,50.82
2022-09-07T04:31:02.147Z,50.77
2022-09-07T04:33:32.731Z,50.53
2022-09-07T04:36:01.314Z,50.97
2022-09-07T04:38:29.015Z,50.99
2022-09-07T04:41:01.281Z,50.84
2022-09-07T04:43:29.780Z,50.55
2022-09-07T04:45:56.908Z,50.88
2022-09-07T04:48:24.162Z,50.74
2022-09-07T04:50:52.257Z,50.86
2022-09-07T04:53:19.765Z,50.99
2022-09-07T04:55:46.689Z,50.82
2022-09-07T04:58:13.635Z,50.88
2022-09-07T05:00:40.557Z,50.92
2022-09-07T05:03:07.551Z,50.69
2022-09-07T05:05:37.874Z,50.77
2022-09-07T05:08:04.820Z,50.66
2022-09-07T05:10:31.783Z,50.98
2022-09-07T05:12:59.024Z,51.08
2022-09-07T05:15:27.982Z,50.69
2022-09-07T05:17:54.874Z,50.77
2022-09-07T05:20:21.969Z,50.73
2022-09-07T05:22:48.873Z,50.72
2022-09-07T05:25:15.801Z,50.62
2022-09-07T05:27:42.751Z,50.53
2022-09-07T05:32:57.456Z,50.31
2022-09-07T05:35:24.387Z,50.46
2022-09-07T05:37:51.406Z,50.69
2022-09-07T05:40:18.403Z,50.65
2022-09-07T05:42:45.394Z,50.45
2022-09-07T05:45:12.506Z,50.76
2022-09-07T05:47:39.441Z,50.56
2022-09-07T05:50:08.958Z,50.37
2022-09-07T05:52:36.556Z,50.14
2022-09-07T05:55:19.617Z,50.03
2022-09-07T05:57:50.717Z,49.92
2022-09-07T06:00:17.618Z,49.57
2022-09-07T06:02:44.732Z,49.63
2022-09-07T06:05:11.655Z,49.46
2022-09-07T06:07:38.907Z,49.39
2022-09-07T06:12:56.406Z,50.03
2022-09-07T06:15:23.284Z,49.89
2022-09-07T06:17:50.195Z,49.55
2022-09-07T06:20:17.101Z,49.49
2022-09-07T06:22:44.007Z,49.96
2022-09-07T06:25:10.893Z,49.60
2022-09-07T06:27:37.791Z,49.38
2022-09-07T06:30:05.395Z,49.25
2022-09-07T06:32:47.589Z,49.08
2022-09-07T06:35:15.583Z,48.46
2022-09-07T06:37:42.852Z,48.37
2022-09-07T06:40:11.542Z,48.26
2022-09-07T06:42:39.188Z,48.21
2022-09-07T06:45:06.915Z,48.54
2022-09-07T06:47:33.871Z,48.32
2022-09-07T06:50:01.453Z,48.50
2022-09-07T06:52:28.491Z,48.26
2022-09-07T06:54:59.149Z,48.70
2022-09-07T06:57:27.107Z,48.63
2022-09-07T06:59:54.100Z,48.33
2022-09-07T07:02:21.021Z,48.34
2022-09-07T07:04:47.987Z,48.44
2022-09-07T07:07:15.167Z,48.53
2022-09-07T07:09:42.503Z,48.36
2022-09-07T07:12:10.785Z,48.59
2022-09-07T07:14:40.937Z,47.62
2022-09-07T07:17:09.755Z,48.02
2022-09-07T07:19:36.654Z,47.86
2022-09-07T07:22:45.088Z,47.40
2022-09-07T07:24:50.487Z,47.20
2022-09-07T07:27:17.573Z,46.77
2022-09-07T07:29:45.771Z,46.73
2022-09-07T07:32:12.662Z,46.52
2022-09-07T07:34:39.517Z,46.09
2022-09-07T07:37:06.395Z,46.01
2022-09-07T07:42:21.226Z,46.38
2022-09-07T07:44:48.715Z,46.26
2022-09-07T07:47:15.699Z,45.88
2022-09-07T07:49:42.553Z,45.66
2022-09-07T07:54:56.257Z,45.71
2022-09-07T07:57:23.171Z,45.41
2022-09-07T07:59:50.030Z,44.58
2022-09-07T08:02:17.380Z,45.23
2022-09-07T08:04:44.445Z,44.91
2022-09-07T08:07:15.706Z,44.41
2022-09-07T08:09:45.626Z,44.57
2022-09-07T08:12:16.689Z,44.59
2022-09-07T08:14:43.613Z,45.11
2022-09-07T08:17:16.533Z,44.59
2022-09-07T08:19:43.685Z,44.59
2022-09-07T08:22:12.032Z,44.23
2022-09-07T08:24:39.094Z,43.97
2022-09-07T08:27:05.967Z,44.25
2022-09-07T08:29:35.168Z,44.21
2022-09-07T08:32:06.732Z,44.00
2022-09-07T08:34:37.223Z,43.90
2022-09-07T08:37:04.511Z,44.17
2022-09-07T08:39:31.727Z,43.97
2022-09-07T08:42:29.456Z,43.89
2022-09-07T08:45:06.923Z,43.86
2022-09-07T08:47:43.320Z,43.88
2022-09-07T08:50:46.119Z,44.31
2022-09-07T08:53:16.787Z,43.24
2022-09-07T08:55:49.404Z,43.43
2022-09-07T08:58:49.285Z,42.97
2022-09-07T09:01:31.943Z,43.02
2022-09-07T09:07:26.725Z,42.22
2022-09-07T09:10:20.354Z,42.32
2022-09-07T09:13:15.067Z,42.05
2022-09-07T09:16:00.750Z,42.17
2022-09-07T09:18:56.379Z,42.26
2022-09-07T09:21:23.276Z,42.31
2022-09-07T09:23:53.750Z,42.38
2022-09-07T09:26:25.908Z,41.20
2022-09-07T09:28:53.169Z,41.27
2022-09-07T09:31:28.945Z,41.03
2022-09-07T09:34:12.534Z,40.24
2022-09-07T09:36:48.978Z,40.18
2022-09-07T09:39:44.441Z,40.17
2022-09-07T09:42:24.123Z,40.30
2022-09-07T09:44:51.760Z,40.16
2022-09-07T09:47:35.871Z,39.45
2022-09-07T09:52:28.972Z,39.28
2022-09-07T09:53:06.978Z,39.13
2022-09-07T09:55:37.177Z,40.00
2022-09-07T10:01:24.046Z,39.46
2022-09-07T10:06:21.746Z,40.44
2022-09-07T10:08:58.486Z,39.87
2022-09-07T10:14:42.688Z,40.34
2022-09-07T10:17:31.417Z,39.61
2022-09-07T10:20:13.070Z,40.04
2022-09-07T10:22:40.798Z,40.05
2022-09-07T10:25:28.308Z,39.19
2022-09-07T10:28:11.310Z,38.69
2022-09-07T10:31:11.136Z,37.94
2022-09-07T10:34:26.474Z,38.00
2022-09-07T10:37:04.851Z,37.86
2022-09-07T10:40:04.374Z,37.27
2022-09-07T10:42:36.031Z,37.75
2022-09-07T10:45:20.774Z,37.52
2022-09-07T10:48:03.364Z,37.35
2022-09-07T10:50:47.773Z,37.40
2022-09-07T10:53:43.244Z,37.06
2022-09-07T10:56:19.296Z,37.07
2022-09-07T11:00:07.468Z,36.41
2022-09-07T11:02:41.069Z,36.23
2022-09-07T11:05:47.088Z,36.61
2022-09-07T11:12:02.025Z,36.29
2022-09-07T11:14:40.863Z,36.25
2022-09-07T11:17:21.926Z,36.36
2022-09-07T11:20:04.507Z,35.79
2022-09-07T11:22:42.124Z,36.45
2022-09-07T11:25:34.574Z,35.45
2022-09-07T11:28:24.225Z,36.07
2022-09-07T11:31:00.487Z,36.02
2022-09-07T11:33:36.906Z,35.50
2022-09-07T11:36:12.774Z,35.62
2022-09-07T11:38:57.914Z,35.61
2022-09-07T11:41:32.078Z,35.04
2022-09-07T11:44:23.826Z,35.71
2022-09-07T11:47:10.007Z,35.51
2022-09-07T11:49:36.877Z,35.20
2022-09-07T11:52:33.656Z,35.29
2022-09-07T11:55:20.589Z,35.30
2022-09-07T11:58:16.128Z,35.47
2022-09-07T12:01:20.449Z,35.09
2022-09-07T12:04:24.820Z,35.58
2022-09-07T12:07:29.206Z,35.60
2022-09-07T12:10:25.720Z,35.23
2022-09-07T12:13:10.751Z,35.15
2022-09-07T12:16:28.584Z,34.58
2022-09-07T12:19:18.903Z,34.33
2022-09-07T12:21:57.693Z,34.02
2022-09-07T12:24:45.933Z,34.23
2022-09-07T12:27:21.921Z,34.61
2022-09-07T12:29:50.210Z,34.13
2022-09-07T12:32:56.923Z,34.51
2022-09-07T12:35:29.915Z,33.99
2022-09-07T12:37:57.820Z,34.17
2022-09-07T12:40:30.261Z,34.31
2022-09-07T12:43:15.379Z,34.37
2022-09-07T12:45:42.336Z,34.02
2022-09-07T12:48:15.548Z,34.22
2022-09-07T12:51:03.332Z,33.96
2022-09-07T12:53:42.524Z,33.95
2022-09-07T12:56:47.089Z,34.03
2022-09-07T12:59:57.523Z,34.16
2022-09-07T13:03:49.560Z,34.48
2022-09-07T13:09:36.685Z,34.46
2022-09-07T13:15:41.079Z,34.72
2022-09-07T13:18:26.877Z,34.49
2022-09-07T13:21:09.061Z,34.37
2022-09-07T13:23:43.018Z,34.26
2022-09-07T13:27:03.786Z,34.49
2022-09-07T13:29:48.540Z,35.05
2022-09-07T13:35:21.524Z,34.62
2022-09-07T13:38:01.285Z,34.72
2022-09-07T13:40:40.422Z,34.66
2022-09-07T13:43:19.379Z,35.77
2022-09-07T13:46:02.016Z,36.92
2022-09-07T13:48:36.727Z,37.53
2022-09-07T13:51:10.395Z,38.25
2022-09-07T13:53:56.164Z,38.55
2022-09-07T13:57:03.959Z,39.87
2022-09-07T13:59:34.839Z,39.87
2022-09-07T14:02:02.569Z,40.19
2022-09-07T14:04:40.343Z,40.39
2022-09-07T14:07:17.390Z,41.57
2022-09-07T14:09:44.357Z,41.73
2022-09-07T14:12:15.891Z,42.83
2022-09-07T14:14:42.754Z,42.49
2022-09-07T14:17:19.639Z,41.87
2022-09-07T14:19:49.885Z,41.75
2022-09-07T14:22:19.253Z,42.88
2022-09-07T14:24:58.298Z,43.10
2022-09-07T14:27:41.652Z,42.15
2022-09-07T14:30:29.552Z,42.90
2022-09-07T14:33:11.255Z,42.61
2022-09-07T14:35:39.903Z,42.34
2022-09-07T14:41:16.017Z,42.28
2022-09-07T14:43:53.287Z,42.52
2022-09-07T14:46:29.893Z,42.58
2022-09-07T14:49:01.551Z,42.47
2022-09-07T14:51:36.415Z,42.43
2022-09-07T14:54:08.210Z,41.76
2022-09-07T14:56:41.007Z,41.97
2022-09-07T14:59:47.659Z,41.69
2022-09-07T15:02:24.335Z,41.56
2022-09-07T15:05:28.300Z,41.67
2022-09-07T15:08:02.789Z,41.30
2022-09-07T15:10:41.329Z,41.07
2022-09-07T15:13:34.078Z,40.84
2022-09-07T15:16:05.236Z,40.96
2022-09-07T15:18:55.713Z,40.40
2022-09-07T15:21:29.881Z,39.62
2022-09-07T15:23:58.682Z,40.13
2022-09-07T15:29:24.454Z,39.89
2022-09-07T15:32:01.732Z,39.80
2022-09-07T15:34:31.358Z,39.07
2022-09-07T15:37:00.190Z,39.55
2022-09-07T15:39:29.766Z,39.61
2022-09-07T15:41:57.758Z,38.62
2022-09-07T15:44:27.885Z,39.30
2022-09-07T15:49:49.305Z,38.52
2022-09-07T15:52:17.622Z,39.15
2022-09-07T15:54:44.623Z,38.92
2022-09-07T15:59:58.515Z,38.56
2022-09-07T16:05:12.804Z,38.59
2022-09-07T16:10:31.154Z,37.90
2022-09-07T16:13:02.900Z,38.05
2022-09-07T16:15:45.749Z,37.64
2022-09-07T16:18:17.117Z,38.52
2022-09-07T16:20:45.304Z,38.09
2022-09-07T16:23:15.180Z,37.74
2022-09-07T16:25:43.737Z,37.89
2022-09-07T16:28:10.964Z,38.31
2022-09-07T16:30:41.415Z,38.42
2022-09-07T16:33:08.660Z,37.63
2022-09-07T16:35:35.575Z,38.05
2022-09-07T16:40:50.854Z,37.71
2022-09-07T16:43:17.905Z,38.35
2022-09-07T16:48:34.013Z,38.38
2022-09-07T16:51:04.988Z,38.23
2022-09-07T16:53:35.454Z,38.42
2022-09-07T16:56:16.924Z,38.34
2022-09-07T16:58:47.163Z,38.66
2022-09-07T17:01:17.054Z,38.76
2022-09-07T17:03:44.682Z,38.24
2022-09-07T17:06:14.156Z,38.33
2022-09-07T17:08:42.245Z,38.67
2022-09-07T17:11:16.114Z,38.38
2022-09-07T17:13:43.855Z,38.65
2022-09-07T17:16:16.066Z,39.17
2022-09-07T17:21:36.683Z,39.28
2022-09-07T17:24:06.290Z,39.36
2022-09-07T17:26:33.570Z,39.67
2022-09-07T17:29:01.097Z,39.37
2022-09-07T17:34:19.655Z,39.84
2022-09-07T17:36:46.884Z,39.99
2022-09-07T17:39:14.904Z,40.29
2022-09-07T17:41:43.802Z,40.06
2022-09-07T17:44:10.985Z,40.31
2022-09-07T17:46:37.903Z,40.57
2022-09-07T17:49:06.998Z,40.19
2022-09-07T17:51:33.943Z,40.86
2022-09-07T17:54:03.565Z,40.96
2022-09-07T17:56:31.582Z,41.06
2022-09-07T18:01:46.968Z,40.76
2022-09-07T18:04:14.459Z,40.29
2022-09-07T18:06:41.381Z,40.66
2022-09-07T18:09:08.372Z,40.26
2022-09-07T18:11:51.104Z,40.15
2022-09-07T18:14:19.102Z,40.35
2022-09-07T18:16:50.070Z,40.13
2022-09-07T18:19:18.370Z,40.45
2022-09-07T18:21:45.742Z,40.61
2022-09-07T18:24:19.453Z,40.38
2022-09-07T18:26:50.698Z,40.22
2022-09-07T18:29:31.056Z,40.62
2022-09-07T18:31:58.684Z,40.15
2022-09-07T18:34:26.197Z,40.70
2022-09-07T18:36:53.792Z,40.41
2022-09-07T18:39:21.811Z,40.54
2022-09-07T18:41:48.679Z,40.60
2022-09-07T18:47:02.636Z,41.00
2022-09-07T18:49:29.529Z,40.67
2022-09-07T18:54:43.238Z,40.79
2022-09-07T18:57:10.417Z,41.34
2022-09-07T18:59:37.293Z,41.41
2022-09-07T19:02:06.064Z,41.08
2022-09-07T19:07:26.042Z,41.12
2022-09-07T19:09:55.943Z,41.40
2022-09-07T19:12:23.834Z,41.27
2022-09-07T19:14:50.775Z,41.38
2022-09-07T19:17:17.873Z,41.62
2022-09-07T19:19:44.805Z,41.25
2022-09-07T19:22:11.668Z,41.27
2022-09-07T19:24:38.561Z,41.38
2022-09-07T19:27:07.109Z,41.30
2022-09-07T19:29:34.175Z,41.89
2022-09-07T19:32:04.129Z,41.40
2022-09-07T19:34:42.621Z,41.75
2022-09-07T19:37:11.816Z,41.97
2022-09-07T19:39:39.286Z,41.61
2022-09-07T19:42:06.943Z,42.03
2022-09-07T19:44:33.978Z,42.31
2022-09-07T19:47:00.981Z,41.71
2022-09-07T19:49:28.561Z,42.30
2022-09-07T19:51:55.642Z,42.38
2022-09-07T19:54:22.658Z,42.53
2022-09-07T19:56:49.539Z,42.31
2022-09-07T19:59:19.521Z,42.86
2022-09-07T20:01:48.267Z,42.40
2022-09-07T20:04:20.571Z,42.67
2022-09-07T20:06:50.053Z,42.88
2022-09-07T20:09:19.135Z,42.93
2022-09-07T20:11:47.751Z,43.31
2022-09-07T20:14:16.294Z,43.55
2022-09-07T20:16:43.429Z,43.26
2022-09-07T20:19:17.450Z,43.32
2022-09-07T20:21:44.419Z,43.13
2022-09-07T20:24:12.600Z,43.40
2022-09-07T20:26:39.657Z,43.52
2022-09-07T20:29:26.123Z,43.45
2022-09-07T20:31:53.910Z,43.49
2022-09-07T20:34:21.022Z,43.59
2022-09-07T20:36:50.268Z,43.60
2022-09-07T20:39:17.930Z,43.93
2022-09-07T20:41:44.935Z,43.90
2022-09-07T20:44:11.974Z,44.14
2022-09-07T20:46:39.139Z,44.20
2022-09-07T20:49:06.361Z,43.98
2022-09-07T20:51:33.411Z,43.98
2022-09-07T20:54:00.293Z,44.12
2022-09-07T20:56:28.795Z,44.12
2022-09-07T20:58:59.908Z,44.30
2022-09-07T21:01:28.383Z,44.31
2022-09-07T21:03:58.001Z,44.12
2022-09-07T21:06:27.067Z,44.04
2022-09-07T21:08:56.313Z,43.80
2022-09-07T21:11:27.411Z,43.86
2022-09-07T21:14:08.734Z,43.86
2022-09-07T21:16:36.429Z,43.94
2022-09-07T21:19:07.116Z,43.85
2022-09-07T21:21:39.193Z,43.62
2022-09-07T21:24:09.831Z,43.80
2022-09-07T21:26:36.700Z,43.91
2022-09-07T21:29:05.188Z,43.78
2022-09-07T21:31:33.717Z,43.83
2022-09-07T21:34:02.378Z,43.71
2022-09-07T21:36:29.710Z,43.71
2022-09-07T21:38:56.682Z,43.82
2022-09-07T21:41:25.236Z,44.05
2022-09-07T21:44:00.144Z,43.96
2022-09-07T21:46:29.259Z,44.31
2022-09-07T21:48:58.008Z,43.91
2022-09-07T21:51:26.337Z,43.77
2022-09-07T21:53:55.456Z,43.82
2022-09-07T21:56:22.875Z,43.94
2022-09-07T21:59:01.322Z,43.79
2022-09-07T22:01:30.423Z,43.63
2022-09-07T22:04:01.095Z,43.95
2022-09-07T22:06:29.178Z,43.62
2022-09-07T22:08:56.372Z,43.85
2022-09-07T22:11:25.234Z,43.87
2022-09-07T22:14:01.788Z,43.79
2022-09-07T22:16:29.970Z,43.82
2022-09-07T22:18:57.440Z,43.85
2022-09-07T22:21:29.304Z,43.90
2022-09-07T22:23:59.810Z,43.84
2022-09-07T22:26:30.101Z,43.72
2022-09-07T22:28:58.269Z,43.71
2022-09-07T22:31:31.501Z,43.80
2022-09-07T22:34:00.362Z,43.79
2022-09-07T22:36:39.863Z,43.83
2022-09-07T22:39:12.183Z,43.97
2022-09-07T22:41:40.061Z,43.68
2022-09-07T22:44:13.513Z,44.05
2022-09-07T22:46:42.954Z,43.97
2022-09-07T22:49:13.163Z,43.89
2022-09-07T22:51:40.375Z,43.99
2022-09-07T22:54:07.907Z,44.00
2022-09-07T22:56:35.128Z,43.95
2022-09-07T22:59:05.462Z,44.04
2022-09-07T23:01:34.023Z,43.77
2022-09-07T23:04:01.575Z,43.85
2022-09-07T23:06:34.636Z,43.77
2022-09-07T23:09:08.311Z,43.60
2022-09-07T23:11:35.451Z,44.05
2022-09-07T23:14:05.576Z,43.93
2022-09-07T23:16:32.530Z,44.16
2022-09-07T23:19:00.708Z,44.11
2022-09-07T23:21:28.254Z,44.13
2022-09-07T23:23:58.240Z,43.75
2022-09-07T23:26:28.772Z,44.02
2022-09-07T23:28:59.288Z,43.94
2022-09-07T23:31:29.188Z,43.75
2022-09-07T23:33:57.676Z,43.65
2022-09-07T23:36:25.483Z,43.76
2022-09-07T23:38:55.444Z,43.79
2022-09-07T23:41:24.040Z,43.80
2022-09-07T23:43:52.595Z,43.56
2022-09-07T23:46:19.948Z,43.70
2022-09-07T23:48:48.367Z,43.32
2022-09-07T23:51:19.919Z,43.57
2022-09-07T23:53:49.948Z,43.51
2022-09-07T23:56:16.822Z,43.39
2022-09-07T23:58:43.727Z,43.22
